Terminal Aerodrome Forecast
Issued by NWS Chicago, IL

Home | Current Version | Previous Version | Text Only | Print | Product List | Glossary On
Versions: 1 2 3 4 5 6 7 8 9 10 11 12 13 14 15 16 17 18 19 20 21 22 23 24 25 26 27 28 29 30 31 32
000
FTUS43 KLOT 180500
TAFRFD
TAF
KRFD 180530Z 1806/1906 35006KT P6SM SCT045 SCT150
     FM181200 03006KT P6SM SKC
     FM181600 07006KT P6SM FEW050
     FM190000 09010KT P6SM FEW200=

USA.gov is the U.S. government's official web portal to all federal, state and local government web resources and services.